createdAt,value
2023-10-20T00:02:29.308Z,14.80
2023-10-20T00:04:56.484Z,14.80
2023-10-20T00:07:23.387Z,14.80
2023-10-20T00:09:51.021Z,14.80
2023-10-20T00:12:18.026Z,14.80
2023-10-20T00:14:45.005Z,14.80
2023-10-20T00:17:12.019Z,14.80
2023-10-20T00:19:51.053Z,14.80
2023-10-20T00:22:18.061Z,14.70
2023-10-20T00:24:46.808Z,14.70
2023-10-20T00:27:16.850Z,14.80
2023-10-20T00:29:43.836Z,14.80
2023-10-20T00:32:11.965Z,14.80
2023-10-20T00:34:39.116Z,14.80
2023-10-20T00:37:06.095Z,14.80
2023-10-20T00:39:36.324Z,14.80
2023-10-20T00:44:45.568Z,14.80
2023-10-20T00:47:12.833Z,14.70
2023-10-20T00:49:40.530Z,14.70
2023-10-20T00:52:08.663Z,14.70
2023-10-20T00:54:35.500Z,14.70
2023-10-20T00:57:04.788Z,14.70
2023-10-20T00:59:31.866Z,14.70
2023-10-20T01:01:58.731Z,14.70
2023-10-20T01:04:25.712Z,14.60
2023-10-20T01:06:52.653Z,14.60
2023-10-20T01:09:27.759Z,14.60
2023-10-20T01:11:56.623Z,14.50
2023-10-20T01:14:23.536Z,14.40
2023-10-20T01:16:50.540Z,14.40
2023-10-20T01:19:17.419Z,14.50
2023-10-20T01:21:44.416Z,14.40
2023-10-20T01:24:11.373Z,14.40
2023-10-20T01:26:38.675Z,14.30
2023-10-20T01:29:10.697Z,14.30
2023-10-20T01:31:37.939Z,14.30
2023-10-20T01:34:04.860Z,14.30
2023-10-20T01:36:32.034Z,14.30
2023-10-20T01:38:59.355Z,14.20
2023-10-20T01:41:27.695Z,14.20
2023-10-20T01:43:54.803Z,14.10
2023-10-20T01:46:21.595Z,14.10
2023-10-20T01:48:48.437Z,14.10
2023-10-20T01:51:15.405Z,14.10
2023-10-20T01:53:42.340Z,14.10
2023-10-20T01:56:09.289Z,14.00
2023-10-20T01:58:37.021Z,14.00
2023-10-20T02:01:09.519Z,14.00
2023-10-20T02:03:36.587Z,14.00
2023-10-20T02:06:04.914Z,13.90
2023-10-20T02:08:31.908Z,13.90
2023-10-20T02:10:58.872Z,13.80
2023-10-20T02:13:26.034Z,13.80
2023-10-20T02:15:53.260Z,13.80
2023-10-20T02:18:20.189Z,13.80
2023-10-20T02:21:04.985Z,13.70
2023-10-20T02:23:36.388Z,13.70
2023-10-20T02:26:08.636Z,13.70
2023-10-20T02:28:36.566Z,13.60
2023-10-20T02:31:12.920Z,13.60
2023-10-20T02:33:40.399Z,13.60
2023-10-20T02:36:07.284Z,13.60
2023-10-20T02:38:34.159Z,13.60
2023-10-20T02:41:01.849Z,13.60
2023-10-20T02:43:29.263Z,13.50
2023-10-20T02:45:56.436Z,13.40
2023-10-20T02:48:24.446Z,13.40
2023-10-20T02:50:51.616Z,13.40
2023-10-20T02:53:19.278Z,13.40
2023-10-20T02:55:50.199Z,13.30
2023-10-20T02:58:17.850Z,13.20
2023-10-20T03:00:46.272Z,13.20
2023-10-20T03:03:14.672Z,13.20
2023-10-20T03:05:49.976Z,13.20
2023-10-20T03:08:18.615Z,13.20
2023-10-20T03:10:45.509Z,13.20
2023-10-20T03:13:12.456Z,13.10
2023-10-20T03:15:39.363Z,13.10
2023-10-20T03:18:06.515Z,13.00
2023-10-20T03:20:34.298Z,12.90
2023-10-20T03:23:10.300Z,12.90
2023-10-20T03:25:52.808Z,12.90
2023-10-20T03:28:31.876Z,13.00
2023-10-20T03:31:25.257Z,12.90
2023-10-20T03:33:52.310Z,12.70
2023-10-20T03:36:19.156Z,12.70
2023-10-20T03:38:46.091Z,12.70
2023-10-20T03:41:13.076Z,12.60
2023-10-20T03:43:39.990Z,12.60
2023-10-20T03:46:07.015Z,12.60
2023-10-20T03:48:36.970Z,12.50
2023-10-20T03:51:07.274Z,12.50
2023-10-20T03:53:44.423Z,12.50
2023-10-20T03:56:11.948Z,12.40
2023-10-20T03:58:43.568Z,12.50
2023-10-20T04:01:10.877Z,12.50
2023-10-20T04:03:37.831Z,12.40
2023-10-20T04:06:07.695Z,12.40
2023-10-20T04:08:35.399Z,12.40
2023-10-20T04:11:02.599Z,12.30
2023-10-20T04:13:33.554Z,12.30
2023-10-20T04:16:13.816Z,12.30
2023-10-20T04:18:45.249Z,12.30
2023-10-20T04:21:15.232Z,12.20
2023-10-20T04:23:45.549Z,12.20
2023-10-20T04:26:22.500Z,12.30
2023-10-20T04:29:04.621Z,12.20
2023-10-20T04:31:50.266Z,12.20
2023-10-20T04:34:35.543Z,12.20
2023-10-20T04:37:20.651Z,12.10
2023-10-20T04:40:06.075Z,12.10
2023-10-20T04:42:35.788Z,12.10
2023-10-20T04:45:21.213Z,12.00
2023-10-20T04:48:00.259Z,11.90
2023-10-20T04:50:29.998Z,11.90
2023-10-20T04:53:00.040Z,11.90
2023-10-20T04:55:29.348Z,11.90
2023-10-20T04:58:14.752Z,11.90
2023-10-20T05:00:45.178Z,11.80
2023-10-20T05:03:24.221Z,11.80
2023-10-20T05:05:58.446Z,11.80
2023-10-20T05:08:26.081Z,11.80
2023-10-20T05:10:55.126Z,11.80
2023-10-20T05:13:23.432Z,11.80
2023-10-20T05:15:51.685Z,11.80
2023-10-20T05:18:18.638Z,11.80
2023-10-20T05:20:48.696Z,11.80
2023-10-20T05:23:16.530Z,11.80
2023-10-20T05:25:48.179Z,11.80
2023-10-20T05:28:17.406Z,11.80
2023-10-20T05:30:45.625Z,11.80
2023-10-20T05:33:13.806Z,11.70
2023-10-20T05:35:43.713Z,11.70
2023-10-20T05:38:12.257Z,11.70
2023-10-20T05:40:39.331Z,11.80
2023-10-20T05:43:09.491Z,11.70
2023-10-20T05:45:42.703Z,11.70
2023-10-20T05:48:10.197Z,11.70
2023-10-20T05:50:39.848Z,11.60
2023-10-20T05:53:11.346Z,11.70
2023-10-20T05:55:38.433Z,11.60
2023-10-20T05:58:05.423Z,11.70
2023-10-20T06:00:37.580Z,11.60
2023-10-20T06:03:10.608Z,11.60
2023-10-20T06:05:37.794Z,11.60
2023-10-20T06:08:05.170Z,11.60
2023-10-20T06:10:31.919Z,11.60
2023-10-20T06:12:58.838Z,11.50
2023-10-20T06:15:25.964Z,11.50
2023-10-20T06:17:53.072Z,11.50
2023-10-20T06:20:20.650Z,11.50
2023-10-20T06:22:47.757Z,11.50
2023-10-20T06:25:14.688Z,11.50
2023-10-20T06:27:45.590Z,11.40
2023-10-20T06:30:24.753Z,11.50
2023-10-20T06:33:12.510Z,11.50
2023-10-20T06:35:51.085Z,11.50
2023-10-20T06:38:56.534Z,11.40
2023-10-20T06:41:26.073Z,11.40
2023-10-20T06:43:53.020Z,11.40
2023-10-20T06:46:30.239Z,11.30
2023-10-20T06:48:57.440Z,11.40
2023-10-20T06:51:26.301Z,11.40
2023-10-20T06:53:55.391Z,11.30
2023-10-20T06:56:26.824Z,11.30
2023-10-20T06:59:21.617Z,11.30
2023-10-20T07:01:52.348Z,11.30
2023-10-20T07:04:28.836Z,11.30
2023-10-20T07:06:58.227Z,11.30
2023-10-20T07:26:28.738Z,11.20
2023-10-20T07:28:55.710Z,11.10
2023-10-20T07:31:27.579Z,11.00
2023-10-20T07:33:54.845Z,11.00
2023-10-20T07:36:21.854Z,10.90
2023-10-20T07:38:52.517Z,10.90
2023-10-20T07:41:19.756Z,10.90
2023-10-20T07:43:49.661Z,11.00
2023-10-20T07:46:18.051Z,10.90
2023-10-20T07:48:45.376Z,11.00
2023-10-20T07:51:12.771Z,11.00
2023-10-20T07:53:39.946Z,11.00
2023-10-20T07:56:06.915Z,11.00
2023-10-20T07:58:34.452Z,11.00
2023-10-20T08:01:04.960Z,11.00
2023-10-20T08:03:31.875Z,11.00
2023-10-20T08:06:01.491Z,10.90
2023-10-20T08:08:28.681Z,10.90
2023-10-20T08:10:55.568Z,10.90
2023-10-20T08:13:22.425Z,10.90
2023-10-20T08:15:49.415Z,10.90
2023-10-20T08:18:17.850Z,10.90
2023-10-20T08:20:44.733Z,10.80
2023-10-20T08:23:11.626Z,10.80
2023-10-20T08:25:38.904Z,10.70
2023-10-20T08:28:06.425Z,10.70
2023-10-20T08:30:33.642Z,10.70
2023-10-20T08:33:01.024Z,10.70
2023-10-20T08:35:28.029Z,10.70
2023-10-20T08:37:54.829Z,10.70
2023-10-20T08:40:21.767Z,10.70
2023-10-20T08:42:50.137Z,10.70
2023-10-20T08:45:17.277Z,10.70
2023-10-20T08:47:45.309Z,10.70
2023-10-20T08:50:17.455Z,10.70
2023-10-20T08:52:49.749Z,10.60
2023-10-20T08:55:23.194Z,10.70
2023-10-20T08:57:53.478Z,10.60
2023-10-20T09:00:23.401Z,10.60
2023-10-20T09:02:50.489Z,10.70
2023-10-20T09:05:23.196Z,10.70
2023-10-20T09:07:54.531Z,10.70
2023-10-20T09:10:21.380Z,10.60
2023-10-20T09:12:48.387Z,10.60
2023-10-20T09:15:15.202Z,10.60
2023-10-20T09:17:42.128Z,10.70
2023-10-20T09:20:13.113Z,10.60
2023-10-20T09:22:40.284Z,10.60
2023-10-20T09:25:14.187Z,10.60
2023-10-20T09:27:42.903Z,10.50
2023-10-20T09:30:12.239Z,10.50
2023-10-20T09:32:40.107Z,10.50
2023-10-20T09:35:07.891Z,10.50
2023-10-20T09:37:39.225Z,10.50
2023-10-20T09:40:11.197Z,10.50
2023-10-20T09:43:25.152Z,10.40
2023-10-20T09:46:03.218Z,10.40
2023-10-20T09:48:30.277Z,10.40
2023-10-20T09:50:57.566Z,10.40
2023-10-20T09:53:25.409Z,10.40
2023-10-20T09:55:52.921Z,10.40
2023-10-20T09:58:35.109Z,10.40
2023-10-20T10:01:03.667Z,10.40
2023-10-20T10:03:39.170Z,10.50
2023-10-20T10:06:17.176Z,10.40
2023-10-20T10:08:45.074Z,10.30
2023-10-20T10:11:27.303Z,10.40
2023-10-20T10:31:18.838Z,10.20
2023-10-20T10:33:46.235Z,10.30
2023-10-20T10:36:17.795Z,10.20
2023-10-20T10:38:45.782Z,10.30
2023-10-20T10:41:12.802Z,10.30
2023-10-20T10:43:40.305Z,10.30
2023-10-20T10:46:08.132Z,10.20
2023-10-20T10:48:36.851Z,10.30
2023-10-20T10:51:06.648Z,10.30
2023-10-20T10:53:33.600Z,10.30
2023-10-20T10:56:00.379Z,10.30
2023-10-20T10:58:27.270Z,10.30
2023-10-20T11:00:55.779Z,10.30
2023-10-20T11:03:25.770Z,10.20
2023-10-20T11:05:53.158Z,10.30
2023-10-20T11:08:21.161Z,10.30
2023-10-20T11:10:48.331Z,10.20
2023-10-20T11:13:17.653Z,10.30
2023-10-20T11:15:48.005Z,10.20
2023-10-20T11:18:17.363Z,10.30
2023-10-20T11:20:48.735Z,10.40
2023-10-20T11:23:15.987Z,10.40
2023-10-20T11:25:43.857Z,10.40
2023-10-20T11:28:10.831Z,10.40
2023-10-20T11:30:40.333Z,10.40
2023-10-20T11:33:14.029Z,10.40
2023-10-20T11:35:43.444Z,10.40
2023-10-20T11:38:10.433Z,10.40
2023-10-20T11:40:38.464Z,10.50
2023-10-20T11:43:05.781Z,10.40
2023-10-20T11:45:32.795Z,10.40
2023-10-20T11:47:59.702Z,10.50
2023-10-20T11:50:26.657Z,10.50
2023-10-20T11:52:53.501Z,10.50
2023-10-20T11:55:20.332Z,10.50
2023-10-20T11:57:47.257Z,10.60
2023-10-20T12:00:15.167Z,10.60
2023-10-20T12:02:42.356Z,10.60
2023-10-20T12:05:10.707Z,10.60
2023-10-20T12:07:38.291Z,10.50
2023-10-20T12:10:06.589Z,10.60
2023-10-20T12:12:34.499Z,10.60
2023-10-20T12:15:04.597Z,10.60
2023-10-20T12:17:31.874Z,10.60
2023-10-20T12:19:58.883Z,10.60
2023-10-20T12:22:27.271Z,10.60
2023-10-20T12:24:54.405Z,10.70
2023-10-20T12:27:22.480Z,10.60
2023-10-20T12:29:49.542Z,10.60
2023-10-20T12:32:17.401Z,10.70
2023-10-20T12:34:44.526Z,10.70
2023-10-20T12:37:11.949Z,10.70
2023-10-20T12:39:40.843Z,10.70
2023-10-20T12:42:11.176Z,10.70
2023-10-20T12:44:38.487Z,10.80
2023-10-20T12:47:07.487Z,10.80
2023-10-20T12:49:34.640Z,10.80
2023-10-20T12:52:01.502Z,10.70
2023-10-20T12:54:28.316Z,10.80
2023-10-20T12:56:55.390Z,10.70
2023-10-20T12:59:22.451Z,10.80
2023-10-20T13:01:49.489Z,10.80
2023-10-20T13:04:17.861Z,10.90
2023-10-20T13:06:59.194Z,10.80
2023-10-20T13:09:28.204Z,10.80
2023-10-20T13:11:57.369Z,10.80
2023-10-20T13:14:24.542Z,10.80
2023-10-20T13:16:51.803Z,10.80
2023-10-20T13:19:19.495Z,10.80
2023-10-20T13:21:46.294Z,10.80
2023-10-20T13:24:13.008Z,10.80
2023-10-20T13:26:39.974Z,10.80
2023-10-20T13:29:07.187Z,10.70
2023-10-20T13:31:35.094Z,10.70
2023-10-20T13:34:03.665Z,10.80
2023-10-20T13:36:30.470Z,10.60
2023-10-20T13:38:57.276Z,10.60
2023-10-20T13:41:25.129Z,10.60
2023-10-20T13:43:52.949Z,10.60
2023-10-20T13:46:20.245Z,10.70
2023-10-20T13:48:48.069Z,10.60
2023-10-20T13:51:15.112Z,10.60
2023-10-20T13:53:41.972Z,10.60
2023-10-20T13:56:08.889Z,10.70
2023-10-20T13:58:35.869Z,10.60
2023-10-20T14:01:04.183Z,10.60
2023-10-20T14:03:31.337Z,10.60
2023-10-20T14:05:58.758Z,10.60
2023-10-20T14:08:26.261Z,10.60
2023-10-20T14:10:55.416Z,10.60
2023-10-20T14:13:22.589Z,10.50
2023-10-20T14:15:50.855Z,10.50
2023-10-20T14:18:18.170Z,10.50
2023-10-20T14:20:45.288Z,10.50
2023-10-20T14:23:12.308Z,10.50
2023-10-20T14:25:39.259Z,10.40
2023-10-20T14:28:07.161Z,10.40
2023-10-20T14:30:34.453Z,10.50
2023-10-20T14:33:01.964Z,10.50
2023-10-20T14:35:36.697Z,10.50
2023-10-20T14:38:03.543Z,10.60
2023-10-20T14:40:30.525Z,10.60
2023-10-20T14:42:57.453Z,10.60
2023-10-20T14:45:24.224Z,10.60
2023-10-20T14:47:51.115Z,10.70
2023-10-20T14:50:18.686Z,10.60
2023-10-20T14:52:45.629Z,10.70
2023-10-20T14:55:12.976Z,10.70
2023-10-20T14:57:39.991Z,10.70
2023-10-20T15:00:10.846Z,10.70
2023-10-20T15:02:39.656Z,10.70
2023-10-20T15:05:07.345Z,10.70
2023-10-20T15:07:35.357Z,10.70
2023-10-20T15:10:02.317Z,10.80
2023-10-20T15:12:29.251Z,10.80
2023-10-20T15:14:56.160Z,10.80
2023-10-20T15:17:23.066Z,10.80
2023-10-20T15:19:49.889Z,10.80
2023-10-20T15:22:16.691Z,10.80
2023-10-20T15:24:43.463Z,10.80
2023-10-20T15:27:10.234Z,10.90
2023-10-20T15:29:37.174Z,10.90
2023-10-20T15:32:04.554Z,10.90
2023-10-20T15:34:32.000Z,10.90
2023-10-20T15:36:59.633Z,10.90
2023-10-20T15:39:40.096Z,10.90
2023-10-20T15:42:11.898Z,10.90
2023-10-20T15:44:38.731Z,11.00
2023-10-20T15:47:05.709Z,11.00
2023-10-20T15:49:32.480Z,11.00
2023-10-20T15:52:00.968Z,10.90
2023-10-20T15:54:28.530Z,11.00
2023-10-20T15:56:55.421Z,11.00
2023-10-20T15:59:22.226Z,11.00
2023-10-20T16:01:49.068Z,11.00
2023-10-20T16:04:16.286Z,11.00
2023-10-20T16:06:43.458Z,11.10
2023-10-20T16:09:10.276Z,11.10
2023-10-20T16:11:37.562Z,11.10
2023-10-20T16:14:04.585Z,11.00
2023-10-20T16:16:32.498Z,11.10
2023-10-20T16:18:59.667Z,11.10
2023-10-20T16:21:26.488Z,11.10
2023-10-20T16:23:53.247Z,11.10
2023-10-20T16:26:20.002Z,11.00
2023-10-20T16:28:46.893Z,11.10
2023-10-20T16:31:13.789Z,11.10
2023-10-20T16:33:40.702Z,11.10
2023-10-20T16:36:07.917Z,11.10
2023-10-20T16:38:35.045Z,11.20
2023-10-20T16:41:02.009Z,11.10
2023-10-20T16:43:29.270Z,11.20
2023-10-20T16:45:56.216Z,11.20
2023-10-20T16:48:23.841Z,11.20
2023-10-20T16:50:58.150Z,11.20
2023-10-20T16:53:25.259Z,11.30
2023-10-20T16:55:52.071Z,11.30
2023-10-20T16:58:20.055Z,11.30
2023-10-20T17:00:48.319Z,11.30
2023-10-20T17:03:15.228Z,11.40
2023-10-20T17:05:44.030Z,11.40
2023-10-20T17:08:11.371Z,11.40
2023-10-20T17:10:40.069Z,11.40
2023-10-20T17:13:07.155Z,11.50
2023-10-20T17:15:34.079Z,11.50
2023-10-20T17:18:01.048Z,11.50
2023-10-20T17:20:28.098Z,11.50
2023-10-20T17:22:55.097Z,11.50
2023-10-20T17:25:21.973Z,11.60
2023-10-20T17:27:51.305Z,11.70
2023-10-20T17:30:18.237Z,11.70
2023-10-20T17:32:46.079Z,11.80
2023-10-20T17:35:13.638Z,11.90
2023-10-20T17:37:41.752Z,12.00
2023-10-20T17:40:12.968Z,12.10
2023-10-20T17:42:39.747Z,12.20
2023-10-20T17:45:07.466Z,12.30
2023-10-20T17:47:34.505Z,12.40
2023-10-20T17:50:01.318Z,12.40
2023-10-20T17:52:28.103Z,12.50
2023-10-20T17:54:54.978Z,12.50
2023-10-20T17:57:23.436Z,12.60
2023-10-20T17:59:50.303Z,12.60
2023-10-20T18:02:18.164Z,12.70
2023-10-20T18:04:45.184Z,12.70
2023-10-20T18:07:11.879Z,12.80
2023-10-20T18:09:38.816Z,12.80
2023-10-20T18:12:06.800Z,12.90
2023-10-20T18:14:34.869Z,12.90
2023-10-20T18:17:01.821Z,13.00
2023-10-20T18:19:28.622Z,13.00
2023-10-20T18:21:55.389Z,13.10
2023-10-20T18:24:22.163Z,13.10
2023-10-20T18:26:49.373Z,13.20
2023-10-20T18:29:16.361Z,13.20
2023-10-20T18:31:43.217Z,13.30
2023-10-20T18:34:10.340Z,13.40
2023-10-20T18:36:37.569Z,13.40
2023-10-20T18:39:04.550Z,13.50
2023-10-20T18:41:32.769Z,13.50
2023-10-20T18:43:59.608Z,13.50
2023-10-20T18:46:27.560Z,13.60
2023-10-20T18:48:57.442Z,13.60
2023-10-20T18:51:24.217Z,13.60
2023-10-20T18:53:51.141Z,13.60
2023-10-20T18:56:18.228Z,13.60
2023-10-20T18:58:47.496Z,13.60
2023-10-20T19:01:14.950Z,13.70
2023-10-20T19:03:42.171Z,13.60
2023-10-20T19:06:09.804Z,13.60
2023-10-20T19:08:39.140Z,13.70
2023-10-20T19:11:09.225Z,13.60
2023-10-20T19:13:36.245Z,13.60
2023-10-20T19:16:04.661Z,13.60
2023-10-20T19:18:32.701Z,13.60
2023-10-20T19:21:04.320Z,13.60
2023-10-20T19:23:31.576Z,13.60
2023-10-20T19:26:11.072Z,13.60
2023-10-20T19:28:38.966Z,13.50
2023-10-20T19:31:08.903Z,13.60
2023-10-20T19:33:37.349Z,13.60
2023-10-20T19:36:09.162Z,13.60
2023-10-20T19:38:38.484Z,13.60
2023-10-20T19:41:05.539Z,13.60
2023-10-20T19:43:32.364Z,13.60
2023-10-20T19:46:02.203Z,13.60
2023-10-20T19:48:29.125Z,13.60
2023-10-20T19:50:58.046Z,13.60
2023-10-20T19:53:25.033Z,13.60
2023-10-20T19:55:51.842Z,13.50
2023-10-20T19:58:18.684Z,13.60
2023-10-20T20:00:45.761Z,13.60
2023-10-20T20:03:12.758Z,13.50
2023-10-20T20:05:39.787Z,13.50
2023-10-20T20:08:06.832Z,13.50
2023-10-20T20:10:33.656Z,13.50
2023-10-20T20:13:00.605Z,13.40
2023-10-20T20:15:27.515Z,13.50
2023-10-20T20:17:56.693Z,13.50
2023-10-20T20:20:23.515Z,13.50
2023-10-20T20:22:50.409Z,13.50
2023-10-20T20:25:17.363Z,13.40
2023-10-20T20:27:44.552Z,13.50
2023-10-20T20:30:12.023Z,13.50
2023-10-20T20:32:39.152Z,13.50
2023-10-20T20:37:58.274Z,13.50
2023-10-20T20:40:25.126Z,13.50
2023-10-20T20:42:53.415Z,13.50
2023-10-20T20:45:20.296Z,13.50
2023-10-20T20:47:47.178Z,13.50
2023-10-20T20:50:26.282Z,13.50
2023-10-20T20:53:00.728Z,13.50
2023-10-20T20:55:27.798Z,13.50
2023-10-20T20:57:54.597Z,13.50
2023-10-20T21:00:26.017Z,13.50
2023-10-20T21:02:55.308Z,13.50
2023-10-20T21:05:22.416Z,13.50
2023-10-20T21:07:49.577Z,13.40
2023-10-20T21:10:16.471Z,13.50
2023-10-20T21:12:43.255Z,13.40
2023-10-20T21:15:12.071Z,13.40
2023-10-20T21:17:39.140Z,13.40
2023-10-20T21:20:07.112Z,13.40
2023-10-20T21:22:34.076Z,13.40
2023-10-20T21:25:00.895Z,13.30
2023-10-20T21:27:28.156Z,13.40
2023-10-20T21:29:55.162Z,13.40
2023-10-20T21:32:22.659Z,13.40
2023-10-20T21:34:49.726Z,13.30
2023-10-20T21:37:19.688Z,13.40
2023-10-20T21:39:46.536Z,13.40
2023-10-20T21:42:13.413Z,13.40
2023-10-20T21:44:42.531Z,13.30
2023-10-20T21:47:11.588Z,13.40
2023-10-20T21:49:38.396Z,13.30
2023-10-20T21:52:05.353Z,13.30
2023-10-20T21:54:32.923Z,13.30
2023-10-20T21:57:00.848Z,13.20
2023-10-20T21:59:27.722Z,13.20
2023-10-20T22:02:09.011Z,13.10
2023-10-20T22:04:37.140Z,13.10
2023-10-20T22:07:04.233Z,13.10
2023-10-20T22:09:38.276Z,13.10
2023-10-20T22:12:13.230Z,13.10
2023-10-20T22:14:40.366Z,13.10
2023-10-20T22:17:07.338Z,13.10
2023-10-20T22:19:34.368Z,13.00
2023-10-20T22:22:01.733Z,13.00
2023-10-20T22:24:28.604Z,13.00
2023-10-20T22:26:55.382Z,13.00
2023-10-20T22:29:22.216Z,13.00
2023-10-20T22:31:49.433Z,12.90
2023-10-20T22:34:16.224Z,12.90
2023-10-20T22:36:43.074Z,12.90
2023-10-20T22:39:09.913Z,12.90
2023-10-20T22:41:36.879Z,12.90
2023-10-20T22:44:03.917Z,12.90
2023-10-20T22:46:30.865Z,12.90
2023-10-20T22:48:57.733Z,12.90
2023-10-20T22:51:24.483Z,12.90
2023-10-20T22:53:51.290Z,12.80
2023-10-20T22:56:18.160Z,12.80
2023-10-20T22:58:47.812Z,12.80
2023-10-20T23:01:14.628Z,12.80
2023-10-20T23:03:41.521Z,12.80
2023-10-20T23:06:08.414Z,12.80
2023-10-20T23:08:35.167Z,12.80
2023-10-20T23:11:02.018Z,12.80
2023-10-20T23:13:28.898Z,12.80
2023-10-20T23:15:55.852Z,12.80
2023-10-20T23:18:22.724Z,12.70
2023-10-20T23:20:50.646Z,12.70
2023-10-20T23:23:17.639Z,12.60
2023-10-20T23:25:44.582Z,12.60
2023-10-20T23:28:12.591Z,12.60
2023-10-20T23:30:39.626Z,12.60
2023-10-20T23:33:06.501Z,12.70
2023-10-20T23:35:33.376Z,12.60
2023-10-20T23:38:00.210Z,12.60
2023-10-20T23:40:27.171Z,12.60
2023-10-20T23:42:57.110Z,12.60
2023-10-20T23:45:23.938Z,12.60
2023-10-20T23:47:50.899Z,12.50
2023-10-20T23:50:17.981Z,12.60
2023-10-20T23:52:45.324Z,12.60
2023-10-20T23:55:12.275Z,12.50
2023-10-20T23:57:48.047Z,12.50
